sensor_id;sensor_type;location;lat;lon;timestamp;P1;durP1;ratioP1;P2;durP2;ratioP2
297;SDS011;133;49.626;9.680;2023-05-10T00:02:23;4.23;;;3.17;;
297;SDS011;133;49.626;9.680;2023-05-10T00:04:49;4.43;;;3.23;;
297;SDS011;133;49.626;9.680;2023-05-10T00:07:15;3.60;;;3.40;;
297;SDS011;133;49.626;9.680;2023-05-10T00:09:42;3.80;;;3.13;;
297;SDS011;133;49.626;9.680;2023-05-10T00:12:08;3.17;;;2.93;;
297;SDS011;133;49.626;9.680;2023-05-10T00:14:34;5.07;;;3.23;;
297;SDS011;133;49.626;9.680;2023-05-10T00:17:00;3.50;;;3.20;;
297;SDS011;133;49.626;9.680;2023-05-10T00:19:25;3.50;;;3.27;;
297;SDS011;133;49.626;9.680;2023-05-10T00:21:51;5.43;;;3.70;;
297;SDS011;133;49.626;9.680;2023-05-10T00:24:17;3.27;;;3.10;;
297;SDS011;133;49.626;9.680;2023-05-10T00:26:42;3.37;;;3.17;;
297;SDS011;133;49.626;9.680;2023-05-10T00:29:08;3.50;;;3.30;;
297;SDS011;133;49.626;9.680;2023-05-10T00:31:33;3.40;;;3.20;;
297;SDS011;133;49.626;9.680;2023-05-10T00:33:59;3.50;;;3.30;;
297;SDS011;133;49.626;9.680;2023-05-10T00:36:25;6.00;;;3.13;;
297;SDS011;133;49.626;9.680;2023-05-10T00:38:51;3.83;;;3.63;;
297;SDS011;133;49.626;9.680;2023-05-10T00:41:16;3.13;;;2.93;;
297;SDS011;133;49.626;9.680;2023-05-10T00:43:42;3.40;;;3.13;;
297;SDS011;133;49.626;9.680;2023-05-10T00:46:07;3.20;;;3.00;;
297;SDS011;133;49.626;9.680;2023-05-10T00:48:33;2.90;;;2.70;;
297;SDS011;133;49.626;9.680;2023-05-10T00:51:00;2.90;;;2.70;;
297;SDS011;133;49.626;9.680;2023-05-10T00:53:26;2.83;;;2.63;;
297;SDS011;133;49.626;9.680;2023-05-10T00:55:53;3.10;;;2.90;;
297;SDS011;133;49.626;9.680;2023-05-10T00:58:19;2.93;;;2.50;;
297;SDS011;133;49.626;9.680;2023-05-10T01:00:45;2.80;;;2.60;;
297;SDS011;133;49.626;9.680;2023-05-10T01:03:12;2.50;;;2.30;;
297;SDS011;133;49.626;9.680;2023-05-10T01:05:39;2.60;;;2.40;;
297;SDS011;133;49.626;9.680;2023-05-10T01:08:04;2.90;;;2.40;;
297;SDS011;133;49.626;9.680;2023-05-10T01:10:31;5.13;;;2.37;;
297;SDS011;133;49.626;9.680;2023-05-10T01:12:56;4.23;;;3.03;;
297;SDS011;133;49.626;9.680;2023-05-10T01:15:24;2.37;;;2.20;;
297;SDS011;133;49.626;9.680;2023-05-10T01:17:50;2.23;;;2.03;;
297;SDS011;133;49.626;9.680;2023-05-10T01:20:17;2.20;;;2.00;;
297;SDS011;133;49.626;9.680;2023-05-10T01:36:43;2.33;;;1.90;;
297;SDS011;133;49.626;9.680;2023-05-10T01:39:28;4.80;;;1.93;;
297;SDS011;133;49.626;9.680;2023-05-10T01:42:08;1.80;;;1.70;;
297;SDS011;133;49.626;9.680;2023-05-10T01:45:00;1.93;;;1.73;;
297;SDS011;133;49.626;9.680;2023-05-10T01:47:35;1.80;;;1.70;;
297;SDS011;133;49.626;9.680;2023-05-10T01:50:10;1.87;;;1.70;;
297;SDS011;133;49.626;9.680;2023-05-10T01:52:44;1.60;;;1.50;;
297;SDS011;133;49.626;9.680;2023-05-10T01:55:16;1.83;;;1.73;;
297;SDS011;133;49.626;9.680;2023-05-10T01:57:43;2.87;;;1.70;;
297;SDS011;133;49.626;9.680;2023-05-10T02:00:11;1.70;;;1.60;;
297;SDS011;133;49.626;9.680;2023-05-10T02:02:39;1.73;;;1.63;;
297;SDS011;133;49.626;9.680;2023-05-10T02:05:07;1.80;;;1.70;;
297;SDS011;133;49.626;9.680;2023-05-10T02:07:34;1.80;;;1.70;;
297;SDS011;133;49.626;9.680;2023-05-10T02:10:04;1.83;;;1.73;;
297;SDS011;133;49.626;9.680;2023-05-10T02:12:35;1.73;;;1.60;;
297;SDS011;133;49.626;9.680;2023-05-10T02:15:03;2.13;;;1.97;;
297;SDS011;133;49.626;9.680;2023-05-10T02:17:30;1.80;;;1.70;;
297;SDS011;133;49.626;9.680;2023-05-10T02:19:57;3.30;;;2.00;;
297;SDS011;133;49.626;9.680;2023-05-10T02:22:25;2.13;;;1.90;;
297;SDS011;133;49.626;9.680;2023-05-10T02:24:53;1.90;;;1.80;;
297;SDS011;133;49.626;9.680;2023-05-10T02:27:20;3.57;;;1.70;;
297;SDS011;133;49.626;9.680;2023-05-10T02:29:47;1.80;;;1.70;;
297;SDS011;133;49.626;9.680;2023-05-10T02:32:14;2.73;;;1.80;;
297;SDS011;133;49.626;9.680;2023-05-10T02:34:42;1.83;;;1.73;;
297;SDS011;133;49.626;9.680;2023-05-10T02:37:10;1.90;;;1.80;;
297;SDS011;133;49.626;9.680;2023-05-10T02:39:39;2.00;;;1.90;;
297;SDS011;133;49.626;9.680;2023-05-10T02:42:09;6.40;;;3.23;;
297;SDS011;133;49.626;9.680;2023-05-10T02:44:37;1.90;;;1.80;;
297;SDS011;133;49.626;9.680;2023-05-10T02:47:06;2.40;;;1.77;;
297;SDS011;133;49.626;9.680;2023-05-10T02:49:31;2.00;;;1.90;;
297;SDS011;133;49.626;9.680;2023-05-10T02:51:59;1.97;;;1.80;;
297;SDS011;133;49.626;9.680;2023-05-10T02:54:29;1.70;;;1.60;;
297;SDS011;133;49.626;9.680;2023-05-10T02:56:58;1.80;;;1.70;;
297;SDS011;133;49.626;9.680;2023-05-10T02:59:25;2.03;;;1.80;;
297;SDS011;133;49.626;9.680;2023-05-10T03:01:51;1.90;;;1.80;;
297;SDS011;133;49.626;9.680;2023-05-10T03:04:17;1.80;;;1.70;;
297;SDS011;133;49.626;9.680;2023-05-10T03:06:43;2.00;;;1.90;;
297;SDS011;133;49.626;9.680;2023-05-10T03:09:09;3.30;;;1.90;;
297;SDS011;133;49.626;9.680;2023-05-10T03:14:21;2.60;;;1.80;;
297;SDS011;133;49.626;9.680;2023-05-10T03:17:46;7.80;;;2.70;;
297;SDS011;133;49.626;9.680;2023-05-10T03:19:58;2.73;;;2.53;;
297;SDS011;133;49.626;9.680;2023-05-10T03:22:32;6.50;;;4.20;;
297;SDS011;133;49.626;9.680;2023-05-10T03:25:03;3.00;;;2.80;;
297;SDS011;133;49.626;9.680;2023-05-10T03:27:31;2.30;;;2.10;;
297;SDS011;133;49.626;9.680;2023-05-10T03:29:57;2.20;;;2.00;;
297;SDS011;133;49.626;9.680;2023-05-10T03:32:23;2.27;;;1.90;;
297;SDS011;133;49.626;9.680;2023-05-10T03:34:49;2.23;;;1.70;;
297;SDS011;133;49.626;9.680;2023-05-10T03:37:14;2.53;;;2.33;;
297;SDS011;133;49.626;9.680;2023-05-10T03:39:40;2.80;;;2.60;;
297;SDS011;133;49.626;9.680;2023-05-10T03:42:06;2.87;;;2.67;;
297;SDS011;133;49.626;9.680;2023-05-10T03:44:31;2.63;;;2.43;;
297;SDS011;133;49.626;9.680;2023-05-10T03:46:58;2.27;;;2.07;;
297;SDS011;133;49.626;9.680;2023-05-10T03:49:24;2.17;;;1.93;;
297;SDS011;133;49.626;9.680;2023-05-10T03:51:49;2.30;;;2.10;;
297;SDS011;133;49.626;9.680;2023-05-10T03:54:15;3.80;;;2.37;;
297;SDS011;133;49.626;9.680;2023-05-10T03:56:41;2.40;;;2.20;;
297;SDS011;133;49.626;9.680;2023-05-10T03:59:06;2.30;;;2.10;;
297;SDS011;133;49.626;9.680;2023-05-10T04:01:33;2.13;;;2.00;;
297;SDS011;133;49.626;9.680;2023-05-10T04:03:59;2.27;;;1.93;;
297;SDS011;133;49.626;9.680;2023-05-10T04:06:25;3.67;;;2.07;;
297;SDS011;133;49.626;9.680;2023-05-10T04:08:51;3.00;;;1.93;;
297;SDS011;133;49.626;9.680;2023-05-10T04:11:16;2.00;;;1.90;;
297;SDS011;133;49.626;9.680;2023-05-10T04:13:42;2.30;;;2.10;;
297;SDS011;133;49.626;9.680;2023-05-10T04:16:08;4.83;;;2.20;;
297;SDS011;133;49.626;9.680;2023-05-10T04:18:33;5.73;;;2.33;;
297;SDS011;133;49.626;9.680;2023-05-10T04:21:00;2.90;;;2.00;;
297;SDS011;133;49.626;9.680;2023-05-10T04:23:29;3.53;;;2.40;;
297;SDS011;133;49.626;9.680;2023-05-10T04:26:01;2.87;;;2.43;;
297;SDS011;133;49.626;9.680;2023-05-10T04:28:26;4.53;;;3.17;;
297;SDS011;133;49.626;9.680;2023-05-10T04:30:52;3.00;;;2.60;;
297;SDS011;133;49.626;9.680;2023-05-10T04:33:18;3.13;;;2.93;;
297;SDS011;133;49.626;9.680;2023-05-10T04:35:43;2.90;;;2.70;;
297;SDS011;133;49.626;9.680;2023-05-10T04:38:10;3.27;;;3.07;;
297;SDS011;133;49.626;9.680;2023-05-10T04:40:35;3.83;;;3.63;;
297;SDS011;133;49.626;9.680;2023-05-10T04:43:01;2.93;;;2.73;;
297;SDS011;133;49.626;9.680;2023-05-10T04:45:26;3.00;;;2.67;;
297;SDS011;133;49.626;9.680;2023-05-10T04:47:52;3.03;;;2.87;;
297;SDS011;133;49.626;9.680;2023-05-10T04:50:17;2.77;;;2.60;;
297;SDS011;133;49.626;9.680;2023-05-10T04:52:43;3.07;;;2.80;;
297;SDS011;133;49.626;9.680;2023-05-10T04:55:09;3.23;;;3.03;;
297;SDS011;133;49.626;9.680;2023-05-10T04:57:35;3.13;;;2.63;;
297;SDS011;133;49.626;9.680;2023-05-10T05:00:01;3.10;;;2.90;;
297;SDS011;133;49.626;9.680;2023-05-10T05:02:26;3.30;;;3.10;;
297;SDS011;133;49.626;9.680;2023-05-10T05:04:52;3.07;;;2.87;;
297;SDS011;133;49.626;9.680;2023-05-10T05:07:18;3.30;;;3.10;;
297;SDS011;133;49.626;9.680;2023-05-10T05:09:43;5.13;;;2.90;;
297;SDS011;133;49.626;9.680;2023-05-10T05:12:09;3.00;;;2.80;;
297;SDS011;133;49.626;9.680;2023-05-10T05:14:38;4.13;;;3.10;;
297;SDS011;133;49.626;9.680;2023-05-10T05:17:04;4.50;;;3.10;;
297;SDS011;133;49.626;9.680;2023-05-10T05:19:30;3.00;;;2.80;;
297;SDS011;133;49.626;9.680;2023-05-10T05:21:56;2.63;;;2.50;;
297;SDS011;133;49.626;9.680;2023-05-10T05:24:22;2.90;;;2.70;;
297;SDS011;133;49.626;9.680;2023-05-10T05:26:48;2.80;;;2.60;;
297;SDS011;133;49.626;9.680;2023-05-10T05:29:13;4.17;;;2.83;;
297;SDS011;133;49.626;9.680;2023-05-10T05:31:39;3.70;;;2.57;;
297;SDS011;133;49.626;9.680;2023-05-10T05:34:04;3.40;;;3.20;;
297;SDS011;133;49.626;9.680;2023-05-10T05:36:30;3.37;;;3.17;;
297;SDS011;133;49.626;9.680;2023-05-10T05:38:56;3.80;;;3.20;;
297;SDS011;133;49.626;9.680;2023-05-10T05:41:22;4.90;;;2.83;;
297;SDS011;133;49.626;9.680;2023-05-10T05:43:49;3.47;;;3.20;;
297;SDS011;133;49.626;9.680;2023-05-10T05:46:15;6.80;;;3.73;;
297;SDS011;133;49.626;9.680;2023-05-10T05:48:40;3.80;;;3.57;;
297;SDS011;133;49.626;9.680;2023-05-10T05:51:06;5.47;;;3.53;;
297;SDS011;133;49.626;9.680;2023-05-10T05:53:31;3.67;;;3.40;;
297;SDS011;133;49.626;9.680;2023-05-10T05:55:57;3.40;;;2.93;;
297;SDS011;133;49.626;9.680;2023-05-10T05:58:23;4.13;;;3.40;;
297;SDS011;133;49.626;9.680;2023-05-10T06:00:52;3.23;;;3.03;;
297;SDS011;133;49.626;9.680;2023-05-10T06:03:19;3.60;;;3.43;;
297;SDS011;133;49.626;9.680;2023-05-10T06:05:47;4.30;;;3.43;;
297;SDS011;133;49.626;9.680;2023-05-10T06:08:13;3.90;;;3.70;;
297;SDS011;133;49.626;9.680;2023-05-10T06:10:38;3.57;;;3.37;;
297;SDS011;133;49.626;9.680;2023-05-10T06:13:04;3.67;;;3.47;;
297;SDS011;133;49.626;9.680;2023-05-10T06:15:30;4.00;;;3.70;;
297;SDS011;133;49.626;9.680;2023-05-10T06:17:55;3.73;;;3.53;;
297;SDS011;133;49.626;9.680;2023-05-10T06:20:21;3.87;;;3.67;;
297;SDS011;133;49.626;9.680;2023-05-10T06:22:47;3.40;;;3.20;;
297;SDS011;133;49.626;9.680;2023-05-10T06:25:12;5.30;;;3.90;;
297;SDS011;133;49.626;9.680;2023-05-10T06:27:39;3.73;;;3.53;;
297;SDS011;133;49.626;9.680;2023-05-10T06:30:05;3.53;;;3.20;;
297;SDS011;133;49.626;9.680;2023-05-10T06:32:31;7.07;;;3.30;;
297;SDS011;133;49.626;9.680;2023-05-10T06:34:56;5.07;;;3.23;;
297;SDS011;133;49.626;9.680;2023-05-10T06:37:22;3.90;;;3.20;;
297;SDS011;133;49.626;9.680;2023-05-10T06:39:48;3.63;;;3.23;;
297;SDS011;133;49.626;9.680;2023-05-10T06:42:13;7.03;;;3.33;;
297;SDS011;133;49.626;9.680;2023-05-10T06:44:39;6.00;;;3.30;;
297;SDS011;133;49.626;9.680;2023-05-10T06:47:04;3.43;;;3.23;;
297;SDS011;133;49.626;9.680;2023-05-10T06:49:30;3.57;;;2.93;;
297;SDS011;133;49.626;9.680;2023-05-10T06:51:56;4.07;;;3.07;;
297;SDS011;133;49.626;9.680;2023-05-10T06:54:21;3.57;;;3.37;;
297;SDS011;133;49.626;9.680;2023-05-10T06:56:48;3.27;;;3.07;;
297;SDS011;133;49.626;9.680;2023-05-10T06:59:13;3.33;;;3.13;;
297;SDS011;133;49.626;9.680;2023-05-10T07:01:40;4.33;;;3.43;;
297;SDS011;133;49.626;9.680;2023-05-10T07:04:05;8.30;;;3.37;;
297;SDS011;133;49.626;9.680;2023-05-10T07:06:32;7.30;;;3.47;;
297;SDS011;133;49.626;9.680;2023-05-10T07:08:58;6.47;;;3.80;;
297;SDS011;133;49.626;9.680;2023-05-10T07:11:24;4.87;;;3.27;;
297;SDS011;133;49.626;9.680;2023-05-10T07:13:49;3.80;;;3.60;;
297;SDS011;133;49.626;9.680;2023-05-10T07:16:15;7.93;;;3.83;;
297;SDS011;133;49.626;9.680;2023-05-10T07:18:40;2.97;;;2.77;;
297;SDS011;133;49.626;9.680;2023-05-10T07:21:06;4.47;;;3.23;;
297;SDS011;133;49.626;9.680;2023-05-10T07:23:32;3.93;;;3.33;;
297;SDS011;133;49.626;9.680;2023-05-10T07:25:57;5.80;;;3.40;;
297;SDS011;133;49.626;9.680;2023-05-10T07:28:24;3.63;;;3.43;;
297;SDS011;133;49.626;9.680;2023-05-10T07:30:49;5.80;;;3.23;;
297;SDS011;133;49.626;9.680;2023-05-10T07:33:15;3.70;;;3.53;;
297;SDS011;133;49.626;9.680;2023-05-10T07:35:41;5.87;;;4.40;;
297;SDS011;133;49.626;9.680;2023-05-10T07:38:07;4.93;;;3.27;;
297;SDS011;133;49.626;9.680;2023-05-10T07:40:32;5.50;;;3.70;;
297;SDS011;133;49.626;9.680;2023-05-10T07:42:58;3.77;;;3.60;;
297;SDS011;133;49.626;9.680;2023-05-10T07:45:26;5.80;;;3.63;;
297;SDS011;133;49.626;9.680;2023-05-10T07:47:52;3.27;;;3.10;;
297;SDS011;133;49.626;9.680;2023-05-10T07:50:17;3.80;;;3.60;;
297;SDS011;133;49.626;9.680;2023-05-10T07:52:43;3.40;;;3.20;;
297;SDS011;133;49.626;9.680;2023-05-10T07:55:09;3.43;;;3.27;;
297;SDS011;133;49.626;9.680;2023-05-10T07:57:34;5.90;;;3.40;;
297;SDS011;133;49.626;9.680;2023-05-10T08:00:00;4.03;;;3.57;;
297;SDS011;133;49.626;9.680;2023-05-10T08:02:26;3.73;;;3.53;;
297;SDS011;133;49.626;9.680;2023-05-10T08:04:51;9.37;;;3.90;;
297;SDS011;133;49.626;9.680;2023-05-10T08:07:17;3.70;;;3.50;;
297;SDS011;133;49.626;9.680;2023-05-10T08:09:43;4.37;;;3.40;;
297;SDS011;133;49.626;9.680;2023-05-10T08:12:08;3.70;;;3.50;;
297;SDS011;133;49.626;9.680;2023-05-10T08:14:34;4.77;;;3.90;;
297;SDS011;133;49.626;9.680;2023-05-10T08:17:01;4.37;;;3.83;;
297;SDS011;133;49.626;9.680;2023-05-10T08:19:28;3.73;;;3.53;;
297;SDS011;133;49.626;9.680;2023-05-10T08:21:53;3.60;;;3.40;;
297;SDS011;133;49.626;9.680;2023-05-10T08:24:20;6.37;;;3.80;;
297;SDS011;133;49.626;9.680;2023-05-10T08:26:46;3.60;;;3.40;;
297;SDS011;133;49.626;9.680;2023-05-10T08:29:12;3.63;;;3.50;;
297;SDS011;133;49.626;9.680;2023-05-10T08:31:38;3.80;;;3.60;;
297;SDS011;133;49.626;9.680;2023-05-10T08:34:04;3.60;;;3.40;;
297;SDS011;133;49.626;9.680;2023-05-10T08:36:30;3.13;;;2.93;;
297;SDS011;133;49.626;9.680;2023-05-10T08:38:57;3.40;;;3.20;;
297;SDS011;133;49.626;9.680;2023-05-10T08:41:23;5.33;;;3.17;;
297;SDS011;133;49.626;9.680;2023-05-10T08:43:51;3.00;;;2.80;;
297;SDS011;133;49.626;9.680;2023-05-10T08:46:18;2.93;;;2.73;;
297;SDS011;133;49.626;9.680;2023-05-10T08:48:45;2.93;;;2.73;;
297;SDS011;133;49.626;9.680;2023-05-10T08:51:18;3.53;;;3.20;;
297;SDS011;133;49.626;9.680;2023-05-10T08:53:46;4.50;;;2.80;;
297;SDS011;133;49.626;9.680;2023-05-10T08:56:13;3.20;;;3.07;;
297;SDS011;133;49.626;9.680;2023-05-10T08:58:40;3.00;;;2.80;;
297;SDS011;133;49.626;9.680;2023-05-10T09:01:06;3.13;;;2.80;;
297;SDS011;133;49.626;9.680;2023-05-10T09:03:33;4.33;;;3.37;;
297;SDS011;133;49.626;9.680;2023-05-10T09:06:00;2.87;;;2.67;;
297;SDS011;133;49.626;9.680;2023-05-10T09:08:26;5.07;;;3.50;;
297;SDS011;133;49.626;9.680;2023-05-10T09:10:52;3.53;;;2.90;;
297;SDS011;133;49.626;9.680;2023-05-10T09:13:18;3.57;;;2.80;;
297;SDS011;133;49.626;9.680;2023-05-10T09:15:44;2.70;;;2.50;;
297;SDS011;133;49.626;9.680;2023-05-10T09:18:11;2.93;;;2.73;;
297;SDS011;133;49.626;9.680;2023-05-10T09:20:37;6.20;;;2.90;;
297;SDS011;133;49.626;9.680;2023-05-10T09:23:03;4.23;;;2.43;;
297;SDS011;133;49.626;9.680;2023-05-10T09:25:28;3.10;;;2.70;;
297;SDS011;133;49.626;9.680;2023-05-10T09:27:54;3.10;;;2.30;;
297;SDS011;133;49.626;9.680;2023-05-10T09:30:24;2.30;;;2.10;;
297;SDS011;133;49.626;9.680;2023-05-10T09:32:53;2.80;;;2.60;;
297;SDS011;133;49.626;9.680;2023-05-10T09:35:21;2.63;;;2.30;;
297;SDS011;133;49.626;9.680;2023-05-10T09:37:50;2.40;;;2.20;;
297;SDS011;133;49.626;9.680;2023-05-10T09:40:25;2.70;;;2.50;;
297;SDS011;133;49.626;9.680;2023-05-10T09:42:59;4.80;;;2.80;;
297;SDS011;133;49.626;9.680;2023-05-10T09:45:27;2.70;;;2.50;;
297;SDS011;133;49.626;9.680;2023-05-10T09:47:56;2.90;;;2.53;;
297;SDS011;133;49.626;9.680;2023-05-10T09:50:23;4.00;;;2.60;;
297;SDS011;133;49.626;9.680;2023-05-10T09:52:50;2.33;;;2.10;;
297;SDS011;133;49.626;9.680;2023-05-10T09:55:18;2.83;;;2.63;;
297;SDS011;133;49.626;9.680;2023-05-10T09:57:45;2.40;;;2.20;;
297;SDS011;133;49.626;9.680;2023-05-10T10:00:16;5.27;;;2.53;;
297;SDS011;133;49.626;9.680;2023-05-10T10:02:42;2.60;;;2.47;;
297;SDS011;133;49.626;9.680;2023-05-10T10:05:09;3.07;;;2.40;;
297;SDS011;133;49.626;9.680;2023-05-10T10:07:36;2.47;;;2.27;;
297;SDS011;133;49.626;9.680;2023-05-10T10:10:03;3.13;;;2.20;;
297;SDS011;133;49.626;9.680;2023-05-10T10:12:29;4.07;;;2.43;;
297;SDS011;133;49.626;9.680;2023-05-10T10:14:55;2.60;;;2.40;;
297;SDS011;133;49.626;9.680;2023-05-10T10:17:22;3.70;;;2.30;;
297;SDS011;133;49.626;9.680;2023-05-10T10:19:52;2.53;;;2.33;;
297;SDS011;133;49.626;9.680;2023-05-10T10:22:18;2.80;;;2.17;;
297;SDS011;133;49.626;9.680;2023-05-10T10:24:44;2.63;;;2.43;;
297;SDS011;133;49.626;9.680;2023-05-10T10:35:26;2.90;;;2.30;;
297;SDS011;133;49.626;9.680;2023-05-10T10:37:54;2.30;;;2.10;;
297;SDS011;133;49.626;9.680;2023-05-10T10:40:26;4.30;;;2.17;;
297;SDS011;133;49.626;9.680;2023-05-10T10:42:52;3.57;;;2.30;;
297;SDS011;133;49.626;9.680;2023-05-10T10:45:18;2.90;;;2.70;;
297;SDS011;133;49.626;9.680;2023-05-10T10:47:45;2.50;;;2.30;;
297;SDS011;133;49.626;9.680;2023-05-10T10:50:11;2.77;;;2.60;;
297;SDS011;133;49.626;9.680;2023-05-10T10:52:43;2.43;;;2.23;;
297;SDS011;133;49.626;9.680;2023-05-10T10:55:11;2.60;;;2.40;;
297;SDS011;133;49.626;9.680;2023-05-10T11:03:08;2.47;;;2.27;;
297;SDS011;133;49.626;9.680;2023-05-10T11:05:43;2.53;;;2.33;;
297;SDS011;133;49.626;9.680;2023-05-10T11:11:16;2.37;;;2.20;;
297;SDS011;133;49.626;9.680;2023-05-10T11:13:38;4.60;;;2.30;;
297;SDS011;133;49.626;9.680;2023-05-10T11:16:16;3.40;;;2.17;;
297;SDS011;133;49.626;9.680;2023-05-10T11:21:27;2.60;;;2.40;;
297;SDS011;133;49.626;9.680;2023-05-10T11:23:53;2.60;;;2.40;;
297;SDS011;133;49.626;9.680;2023-05-10T11:26:33;2.57;;;2.40;;
297;SDS011;133;49.626;9.680;2023-05-10T11:29:00;2.20;;;2.00;;
297;SDS011;133;49.626;9.680;2023-05-10T11:31:27;2.07;;;1.93;;
297;SDS011;133;49.626;9.680;2023-05-10T11:33:53;2.50;;;2.30;;
297;SDS011;133;49.626;9.680;2023-05-10T11:36:21;3.00;;;2.40;;
297;SDS011;133;49.626;9.680;2023-05-10T11:38:52;2.20;;;2.00;;
297;SDS011;133;49.626;9.680;2023-05-10T11:41:18;2.23;;;2.03;;
297;SDS011;133;49.626;9.680;2023-05-10T11:43:51;2.73;;;2.00;;
297;SDS011;133;49.626;9.680;2023-05-10T11:46:19;1.97;;;1.90;;
297;SDS011;133;49.626;9.680;2023-05-10T11:48:46;2.00;;;1.90;;
297;SDS011;133;49.626;9.680;2023-05-10T11:51:24;2.13;;;2.00;;
297;SDS011;133;49.626;9.680;2023-05-10T11:53:52;2.37;;;2.10;;
297;SDS011;133;49.626;9.680;2023-05-10T11:56:19;2.40;;;2.20;;
297;SDS011;133;49.626;9.680;2023-05-10T11:58:53;4.40;;;2.00;;
297;SDS011;133;49.626;9.680;2023-05-10T12:01:20;5.27;;;2.20;;
297;SDS011;133;49.626;9.680;2023-05-10T12:03:46;4.20;;;3.47;;
297;SDS011;133;49.626;9.680;2023-05-10T12:06:12;9.20;;;6.03;;
297;SDS011;133;49.626;9.680;2023-05-10T12:08:43;7.83;;;5.87;;
297;SDS011;133;49.626;9.680;2023-05-10T12:11:11;7.90;;;4.63;;
297;SDS011;133;49.626;9.680;2023-05-10T12:13:41;7.83;;;5.73;;
297;SDS011;133;49.626;9.680;2023-05-10T12:16:15;7.80;;;5.67;;
297;SDS011;133;49.626;9.680;2023-05-10T12:18:41;9.37;;;5.20;;
297;SDS011;133;49.626;9.680;2023-05-10T12:21:08;10.00;;;7.73;;
297;SDS011;133;49.626;9.680;2023-05-10T12:23:35;4.80;;;4.00;;
297;SDS011;133;49.626;9.680;2023-05-10T12:26:03;5.60;;;5.30;;
297;SDS011;133;49.626;9.680;2023-05-10T12:28:30;8.33;;;7.07;;
297;SDS011;133;49.626;9.680;2023-05-10T12:30:57;6.93;;;5.67;;
297;SDS011;133;49.626;9.680;2023-05-10T12:33:24;5.33;;;5.03;;
297;SDS011;133;49.626;9.680;2023-05-10T12:35:51;6.97;;;5.70;;
297;SDS011;133;49.626;9.680;2023-05-10T12:41:14;5.13;;;3.70;;
297;SDS011;133;49.626;9.680;2023-05-10T12:43:40;3.83;;;3.67;;
297;SDS011;133;49.626;9.680;2023-05-10T12:46:07;4.13;;;3.93;;
297;SDS011;133;49.626;9.680;2023-05-10T12:48:37;3.50;;;3.30;;
297;SDS011;133;49.626;9.680;2023-05-10T12:51:05;3.33;;;3.13;;
297;SDS011;133;49.626;9.680;2023-05-10T12:53:34;3.70;;;3.00;;
297;SDS011;133;49.626;9.680;2023-05-10T12:56:00;8.13;;;2.90;;
297;SDS011;133;49.626;9.680;2023-05-10T12:58:26;4.20;;;2.90;;
297;SDS011;133;49.626;9.680;2023-05-10T13:00:52;5.80;;;3.17;;
297;SDS011;133;49.626;9.680;2023-05-10T13:03:18;3.03;;;2.83;;
297;SDS011;133;49.626;9.680;2023-05-10T13:05:43;3.37;;;3.17;;
297;SDS011;133;49.626;9.680;2023-05-10T13:08:09;4.50;;;2.90;;
297;SDS011;133;49.626;9.680;2023-05-10T13:10:35;5.10;;;2.80;;
297;SDS011;133;49.626;9.680;2023-05-10T13:13:00;2.77;;;2.57;;
297;SDS011;133;49.626;9.680;2023-05-10T13:15:26;2.90;;;2.70;;
297;SDS011;133;49.626;9.680;2023-05-10T13:17:52;3.00;;;2.80;;
297;SDS011;133;49.626;9.680;2023-05-10T13:20:18;3.63;;;2.53;;
297;SDS011;133;49.626;9.680;2023-05-10T13:22:44;5.03;;;3.20;;
297;SDS011;133;49.626;9.680;2023-05-10T13:25:10;2.97;;;2.77;;
297;SDS011;133;49.626;9.680;2023-05-10T13:27:36;2.80;;;2.60;;
297;SDS011;133;49.626;9.680;2023-05-10T13:30:02;3.87;;;2.97;;
297;SDS011;133;49.626;9.680;2023-05-10T13:32:29;3.37;;;2.80;;
297;SDS011;133;49.626;9.680;2023-05-10T13:34:54;3.50;;;2.57;;
297;SDS011;133;49.626;9.680;2023-05-10T13:37:20;7.87;;;3.40;;
297;SDS011;133;49.626;9.680;2023-05-10T13:39:46;2.67;;;2.33;;
297;SDS011;133;49.626;9.680;2023-05-10T13:42:12;2.73;;;2.53;;
297;SDS011;133;49.626;9.680;2023-05-10T13:44:38;2.67;;;2.47;;
297;SDS011;133;49.626;9.680;2023-05-10T13:47:04;3.43;;;2.67;;
297;SDS011;133;49.626;9.680;2023-05-10T13:49:29;2.73;;;2.53;;
297;SDS011;133;49.626;9.680;2023-05-10T13:51:55;2.73;;;2.53;;
297;SDS011;133;49.626;9.680;2023-05-10T13:54:21;2.70;;;2.50;;
297;SDS011;133;49.626;9.680;2023-05-10T13:56:47;2.60;;;2.40;;
297;SDS011;133;49.626;9.680;2023-05-10T13:59:13;2.77;;;2.60;;
297;SDS011;133;49.626;9.680;2023-05-10T14:01:42;2.83;;;2.60;;
297;SDS011;133;49.626;9.680;2023-05-10T14:04:08;3.50;;;2.77;;
297;SDS011;133;49.626;9.680;2023-05-10T14:06:37;7.23;;;2.83;;
297;SDS011;133;49.626;9.680;2023-05-10T14:09:03;3.20;;;2.67;;
297;SDS011;133;49.626;9.680;2023-05-10T14:11:29;3.90;;;2.77;;
297;SDS011;133;49.626;9.680;2023-05-10T14:13:54;2.87;;;2.40;;
297;SDS011;133;49.626;9.680;2023-05-10T14:16:20;4.40;;;3.23;;
297;SDS011;133;49.626;9.680;2023-05-10T14:18:46;6.83;;;3.47;;
297;SDS011;133;49.626;9.680;2023-05-10T14:21:12;4.70;;;2.90;;
297;SDS011;133;49.626;9.680;2023-05-10T14:23:38;3.47;;;3.27;;
297;SDS011;133;49.626;9.680;2023-05-10T14:26:04;2.80;;;2.60;;
297;SDS011;133;49.626;9.680;2023-05-10T14:28:31;3.40;;;3.20;;
297;SDS011;133;49.626;9.680;2023-05-10T14:30:57;4.43;;;3.10;;
297;SDS011;133;49.626;9.680;2023-05-10T14:33:22;4.00;;;2.80;;
297;SDS011;133;49.626;9.680;2023-05-10T14:35:48;3.10;;;2.90;;
297;SDS011;133;49.626;9.680;2023-05-10T14:38:14;3.30;;;2.97;;
297;SDS011;133;49.626;9.680;2023-05-10T14:40:40;2.90;;;2.70;;
297;SDS011;133;49.626;9.680;2023-05-10T14:43:05;3.00;;;2.83;;
297;SDS011;133;49.626;9.680;2023-05-10T14:45:31;3.00;;;2.80;;
297;SDS011;133;49.626;9.680;2023-05-10T14:47:57;3.63;;;2.80;;
297;SDS011;133;49.626;9.680;2023-05-10T14:50:23;3.33;;;3.23;;
297;SDS011;133;49.626;9.680;2023-05-10T14:52:48;2.77;;;2.57;;
297;SDS011;133;49.626;9.680;2023-05-10T14:55:14;3.10;;;2.90;;
297;SDS011;133;49.626;9.680;2023-05-10T14:57:40;3.83;;;2.90;;
297;SDS011;133;49.626;9.680;2023-05-10T15:00:06;3.00;;;2.67;;
297;SDS011;133;49.626;9.680;2023-05-10T15:02:32;3.20;;;2.90;;
297;SDS011;133;49.626;9.680;2023-05-10T15:04:58;5.00;;;3.10;;
297;SDS011;133;49.626;9.680;2023-05-10T15:07:23;5.57;;;2.90;;
297;SDS011;133;49.626;9.680;2023-05-10T15:09:49;2.97;;;2.80;;
297;SDS011;133;49.626;9.680;2023-05-10T15:12:16;3.03;;;2.83;;
297;SDS011;133;49.626;9.680;2023-05-10T15:14:43;5.90;;;2.83;;
297;SDS011;133;49.626;9.680;2023-05-10T15:17:08;2.87;;;2.67;;
297;SDS011;133;49.626;9.680;2023-05-10T15:19:35;4.00;;;2.67;;
297;SDS011;133;49.626;9.680;2023-05-10T15:22:01;3.53;;;2.77;;
297;SDS011;133;49.626;9.680;2023-05-10T15:24:27;5.83;;;2.40;;
297;SDS011;133;49.626;9.680;2023-05-10T15:26:53;4.73;;;2.90;;
297;SDS011;133;49.626;9.680;2023-05-10T15:29:19;2.33;;;2.13;;
297;SDS011;133;49.626;9.680;2023-05-10T15:31:48;2.60;;;2.30;;
297;SDS011;133;49.626;9.680;2023-05-10T15:34:15;3.10;;;2.23;;
297;SDS011;133;49.626;9.680;2023-05-10T15:36:41;2.77;;;2.47;;
297;SDS011;133;49.626;9.680;2023-05-10T15:39:06;5.10;;;2.37;;
297;SDS011;133;49.626;9.680;2023-05-10T15:41:34;2.90;;;2.50;;
297;SDS011;133;49.626;9.680;2023-05-10T15:43:59;3.57;;;2.40;;
297;SDS011;133;49.626;9.680;2023-05-10T15:46:26;5.23;;;2.60;;
297;SDS011;133;49.626;9.680;2023-05-10T15:48:52;3.20;;;2.40;;
297;SDS011;133;49.626;9.680;2023-05-10T15:51:18;4.87;;;2.30;;
297;SDS011;133;49.626;9.680;2023-05-10T15:53:44;2.80;;;2.50;;
297;SDS011;133;49.626;9.680;2023-05-10T15:56:10;2.63;;;2.50;;
297;SDS011;133;49.626;9.680;2023-05-10T15:58:39;2.87;;;1.97;;
297;SDS011;133;49.626;9.680;2023-05-10T16:01:06;4.70;;;2.50;;
297;SDS011;133;49.626;9.680;2023-05-10T16:03:32;5.70;;;2.40;;
297;SDS011;133;49.626;9.680;2023-05-10T16:05:58;2.70;;;2.40;;
297;SDS011;133;49.626;9.680;2023-05-10T16:08:24;2.60;;;2.40;;
297;SDS011;133;49.626;9.680;2023-05-10T16:10:50;3.90;;;2.40;;
297;SDS011;133;49.626;9.680;2023-05-10T16:13:16;2.50;;;2.30;;
297;SDS011;133;49.626;9.680;2023-05-10T16:15:42;3.13;;;2.40;;
297;SDS011;133;49.626;9.680;2023-05-10T16:18:08;7.40;;;2.47;;
297;SDS011;133;49.626;9.680;2023-05-10T16:20:34;2.60;;;2.30;;
297;SDS011;133;49.626;9.680;2023-05-10T16:23:03;3.83;;;2.23;;